sensor_id;sensor_type;location;lat;lon;timestamp;P1;durP1;ratioP1;P2;durP2;ratioP2
35907;SDS011;22003;50.320;8.054;2023-04-24T04:03:23;3.58;;;2.00;;
35907;SDS011;22003;50.320;8.054;2023-04-24T04:05:48;7.25;;;2.50;;
35907;SDS011;22003;50.320;8.054;2023-04-24T04:08:13;5.88;;;2.42;;
35907;SDS011;22003;50.320;8.054;2023-04-24T04:10:38;5.75;;;3.03;;
35907;SDS011;22003;50.320;8.054;2023-04-24T04:13:04;6.20;;;3.00;;
35907;SDS011;22003;50.320;8.054;2023-04-24T04:15:31;8.07;;;3.53;;
35907;SDS011;22003;50.320;8.054;2023-04-24T04:17:56;5.10;;;2.08;;
35907;SDS011;22003;50.320;8.054;2023-04-24T04:20:21;7.95;;;3.78;;
35907;SDS011;22003;50.320;8.054;2023-04-24T04:22:47;5.95;;;2.85;;
35907;SDS011;22003;50.320;8.054;2023-04-24T04:25:12;4.05;;;1.83;;
35907;SDS011;22003;50.320;8.054;2023-04-24T04:27:38;3.88;;;1.98;;
35907;SDS011;22003;50.320;8.054;2023-04-24T04:30:04;3.55;;;2.30;;
35907;SDS011;22003;50.320;8.054;2023-04-24T04:32:31;2.63;;;2.10;;
35907;SDS011;22003;50.320;8.054;2023-04-24T04:34:58;3.10;;;2.08;;
35907;SDS011;22003;50.320;8.054;2023-04-24T04:37:23;2.55;;;1.85;;
35907;SDS011;22003;50.320;8.054;2023-04-24T04:39:48;5.40;;;1.90;;
35907;SDS011;22003;50.320;8.054;2023-04-24T04:42:14;4.65;;;2.20;;
35907;SDS011;22003;50.320;8.054;2023-04-24T04:44:40;4.45;;;2.30;;
35907;SDS011;22003;50.320;8.054;2023-04-24T04:47:05;4.55;;;2.05;;
35907;SDS011;22003;50.320;8.054;2023-04-24T04:49:32;3.97;;;2.75;;
35907;SDS011;22003;50.320;8.054;2023-04-24T04:51:57;7.75;;;2.88;;
35907;SDS011;22003;50.320;8.054;2023-04-24T04:54:22;5.22;;;3.78;;
35907;SDS011;22003;50.320;8.054;2023-04-24T04:56:49;4.50;;;3.10;;
35907;SDS011;22003;50.320;8.054;2023-04-24T04:59:15;4.75;;;2.58;;
35907;SDS011;22003;50.320;8.054;2023-04-24T05:01:40;4.53;;;3.05;;
35907;SDS011;22003;50.320;8.054;2023-04-24T05:04:06;4.00;;;2.78;;
35907;SDS011;22003;50.320;8.054;2023-04-24T05:06:31;5.10;;;2.50;;
35907;SDS011;22003;50.320;8.054;2023-04-24T05:08:56;6.72;;;3.72;;
35907;SDS011;22003;50.320;8.054;2023-04-24T05:11:22;4.50;;;3.10;;
35907;SDS011;22003;50.320;8.054;2023-04-24T05:13:47;6.47;;;2.80;;
35907;SDS011;22003;50.320;8.054;2023-04-24T05:16:13;8.75;;;4.50;;
35907;SDS011;22003;50.320;8.054;2023-04-24T05:18:38;6.20;;;3.20;;
35907;SDS011;22003;50.320;8.054;2023-04-24T05:21:03;4.35;;;3.03;;
35907;SDS011;22003;50.320;8.054;2023-04-24T05:23:28;6.85;;;3.60;;
35907;SDS011;22003;50.320;8.054;2023-04-24T05:25:54;5.47;;;3.10;;
35907;SDS011;22003;50.320;8.054;2023-04-24T05:28:19;4.80;;;2.78;;
35907;SDS011;22003;50.320;8.054;2023-04-24T05:30:45;4.55;;;2.63;;
35907;SDS011;22003;50.320;8.054;2023-04-24T05:33:11;4.93;;;2.90;;
35907;SDS011;22003;50.320;8.054;2023-04-24T05:35:36;3.53;;;2.90;;
35907;SDS011;22003;50.320;8.054;2023-04-24T05:38:01;6.75;;;3.35;;
35907;SDS011;22003;50.320;8.054;2023-04-24T05:40:26;4.60;;;2.88;;
35907;SDS011;22003;50.320;8.054;2023-04-24T05:42:52;5.47;;;3.05;;
35907;SDS011;22003;50.320;8.054;2023-04-24T05:45:17;6.85;;;3.38;;
35907;SDS011;22003;50.320;8.054;2023-04-24T05:47:42;4.82;;;3.13;;
35907;SDS011;22003;50.320;8.054;2023-04-24T05:50:09;5.43;;;3.30;;
35907;SDS011;22003;50.320;8.054;2023-04-24T05:52:34;6.60;;;3.38;;
35907;SDS011;22003;50.320;8.054;2023-04-24T05:55:00;6.78;;;3.20;;
35907;SDS011;22003;50.320;8.054;2023-04-24T05:57:25;4.65;;;3.33;;
35907;SDS011;22003;50.320;8.054;2023-04-24T05:59:50;7.43;;;3.90;;
35907;SDS011;22003;50.320;8.054;2023-04-24T06:02:16;8.52;;;4.43;;
35907;SDS011;22003;50.320;8.054;2023-04-24T06:04:42;6.68;;;3.53;;
35907;SDS011;22003;50.320;8.054;2023-04-24T06:07:07;6.00;;;4.30;;
35907;SDS011;22003;50.320;8.054;2023-04-24T06:09:32;8.05;;;5.10;;
35907;SDS011;22003;50.320;8.054;2023-04-24T06:11:57;8.70;;;4.43;;
35907;SDS011;22003;50.320;8.054;2023-04-24T06:14:23;7.60;;;4.75;;
35907;SDS011;22003;50.320;8.054;2023-04-24T06:16:48;8.20;;;4.45;;
35907;SDS011;22003;50.320;8.054;2023-04-24T06:19:14;6.18;;;4.07;;
35907;SDS011;22003;50.320;8.054;2023-04-24T06:21:39;8.77;;;4.57;;
35907;SDS011;22003;50.320;8.054;2023-04-24T06:24:04;7.25;;;4.63;;
35907;SDS011;22003;50.320;8.054;2023-04-24T06:26:30;8.82;;;4.80;;
35907;SDS011;22003;50.320;8.054;2023-04-24T06:28:55;8.30;;;5.07;;
35907;SDS011;22003;50.320;8.054;2023-04-24T06:31:21;5.20;;;4.15;;
35907;SDS011;22003;50.320;8.054;2023-04-24T06:33:48;7.03;;;4.75;;
35907;SDS011;22003;50.320;8.054;2023-04-24T06:36:13;6.60;;;4.53;;
35907;SDS011;22003;50.320;8.054;2023-04-24T06:38:39;8.05;;;4.63;;
35907;SDS011;22003;50.320;8.054;2023-04-24T06:41:04;6.82;;;4.68;;
35907;SDS011;22003;50.320;8.054;2023-04-24T06:43:30;9.88;;;5.35;;
35907;SDS011;22003;50.320;8.054;2023-04-24T06:45:56;6.80;;;4.75;;
35907;SDS011;22003;50.320;8.054;2023-04-24T06:48:22;5.32;;;3.92;;
35907;SDS011;22003;50.320;8.054;2023-04-24T06:50:48;7.88;;;5.07;;
35907;SDS011;22003;50.320;8.054;2023-04-24T06:53:14;7.05;;;4.70;;
35907;SDS011;22003;50.320;8.054;2023-04-24T06:55:39;6.72;;;4.55;;
35907;SDS011;22003;50.320;8.054;2023-04-24T06:58:05;8.15;;;4.85;;
35907;SDS011;22003;50.320;8.054;2023-04-24T07:00:31;5.22;;;4.13;;
35907;SDS011;22003;50.320;8.054;2023-04-24T07:02:56;6.40;;;4.53;;
35907;SDS011;22003;50.320;8.054;2023-04-24T07:05:22;5.43;;;4.07;;
35907;SDS011;22003;50.320;8.054;2023-04-24T07:07:48;6.03;;;3.67;;
35907;SDS011;22003;50.320;8.054;2023-04-24T07:10:14;12.40;;;4.38;;
35907;SDS011;22003;50.320;8.054;2023-04-24T07:12:40;7.93;;;4.50;;
35907;SDS011;22003;50.320;8.054;2023-04-24T07:15:05;5.85;;;4.75;;
35907;SDS011;22003;50.320;8.054;2023-04-24T07:17:32;7.55;;;4.32;;
35907;SDS011;22003;50.320;8.054;2023-04-24T07:19:58;4.78;;;3.78;;
35907;SDS011;22003;50.320;8.054;2023-04-24T07:22:23;5.50;;;4.00;;
35907;SDS011;22003;50.320;8.054;2023-04-24T07:24:48;7.60;;;5.30;;
35907;SDS011;22003;50.320;8.054;2023-04-24T07:27:13;5.43;;;3.40;;
35907;SDS011;22003;50.320;8.054;2023-04-24T07:29:39;9.07;;;4.05;;
35907;SDS011;22003;50.320;8.054;2023-04-24T07:32:05;7.18;;;3.88;;
35907;SDS011;22003;50.320;8.054;2023-04-24T07:34:31;5.03;;;3.72;;
35907;SDS011;22003;50.320;8.054;2023-04-24T07:36:56;11.23;;;4.80;;
35907;SDS011;22003;50.320;8.054;2023-04-24T07:39:21;5.30;;;4.00;;
35907;SDS011;22003;50.320;8.054;2023-04-24T07:41:47;4.47;;;3.78;;
35907;SDS011;22003;50.320;8.054;2023-04-24T07:44:12;6.90;;;3.92;;
35907;SDS011;22003;50.320;8.054;2023-04-24T07:46:37;6.45;;;3.80;;
35907;SDS011;22003;50.320;8.054;2023-04-24T07:49:03;7.47;;;3.22;;
35907;SDS011;22003;50.320;8.054;2023-04-24T07:51:29;3.70;;;3.30;;
35907;SDS011;22003;50.320;8.054;2023-04-24T07:53:55;6.80;;;3.42;;
35907;SDS011;22003;50.320;8.054;2023-04-24T07:56:20;7.22;;;4.00;;
35907;SDS011;22003;50.320;8.054;2023-04-24T07:58:46;6.28;;;3.65;;
35907;SDS011;22003;50.320;8.054;2023-04-24T08:01:11;5.45;;;3.10;;
35907;SDS011;22003;50.320;8.054;2023-04-24T08:03:36;5.25;;;3.15;;
35907;SDS011;22003;50.320;8.054;2023-04-24T08:06:01;6.60;;;3.72;;
35907;SDS011;22003;50.320;8.054;2023-04-24T08:08:27;4.20;;;3.03;;
35907;SDS011;22003;50.320;8.054;2023-04-24T08:10:52;5.55;;;3.63;;
35907;SDS011;22003;50.320;8.054;2023-04-24T08:13:17;3.38;;;2.83;;
35907;SDS011;22003;50.320;8.054;2023-04-24T08:15:43;4.40;;;3.03;;
35907;SDS011;22003;50.320;8.054;2023-04-24T08:18:08;3.28;;;2.70;;
35907;SDS011;22003;50.320;8.054;2023-04-24T08:20:34;3.95;;;3.40;;
35907;SDS011;22003;50.320;8.054;2023-04-24T08:22:59;6.68;;;2.72;;
35907;SDS011;22003;50.320;8.054;2023-04-24T08:25:24;4.05;;;2.90;;
35907;SDS011;22003;50.320;8.054;2023-04-24T08:27:50;4.55;;;2.90;;
35907;SDS011;22003;50.320;8.054;2023-04-24T08:30:16;4.43;;;3.08;;
35907;SDS011;22003;50.320;8.054;2023-04-24T08:32:42;3.80;;;2.78;;
35907;SDS011;22003;50.320;8.054;2023-04-24T08:35:07;3.78;;;2.70;;
35907;SDS011;22003;50.320;8.054;2023-04-24T08:37:34;3.33;;;2.45;;
35907;SDS011;22003;50.320;8.054;2023-04-24T08:39:59;4.05;;;3.15;;
35907;SDS011;22003;50.320;8.054;2023-04-24T08:42:24;3.88;;;2.58;;
35907;SDS011;22003;50.320;8.054;2023-04-24T08:44:53;2.40;;;2.20;;
35907;SDS011;22003;50.320;8.054;2023-04-24T08:47:19;4.70;;;2.30;;
35907;SDS011;22003;50.320;8.054;2023-04-24T08:49:46;2.47;;;2.13;;
35907;SDS011;22003;50.320;8.054;2023-04-24T08:52:13;2.92;;;2.38;;
35907;SDS011;22003;50.320;8.054;2023-04-24T08:54:38;3.63;;;2.47;;
35907;SDS011;22003;50.320;8.054;2023-04-24T08:57:08;3.53;;;2.47;;
35907;SDS011;22003;50.320;8.054;2023-04-24T08:59:36;2.10;;;1.85;;
35907;SDS011;22003;50.320;8.054;2023-04-24T09:02:02;2.50;;;1.80;;
35907;SDS011;22003;50.320;8.054;2023-04-24T09:04:28;2.55;;;2.00;;
35907;SDS011;22003;50.320;8.054;2023-04-24T09:06:55;2.03;;;1.80;;
35907;SDS011;22003;50.320;8.054;2023-04-24T09:09:22;4.63;;;1.80;;
35907;SDS011;22003;50.320;8.054;2023-04-24T09:11:51;3.95;;;2.00;;
35907;SDS011;22003;50.320;8.054;2023-04-24T09:14:20;2.60;;;1.98;;
35907;SDS011;22003;50.320;8.054;2023-04-24T09:16:46;2.75;;;1.52;;
35907;SDS011;22003;50.320;8.054;2023-04-24T09:19:12;3.17;;;1.58;;
35907;SDS011;22003;50.320;8.054;2023-04-24T09:21:37;3.10;;;1.63;;
35907;SDS011;22003;50.320;8.054;2023-04-24T09:24:06;1.80;;;1.50;;
35907;SDS011;22003;50.320;8.054;2023-04-24T09:26:34;1.90;;;1.35;;
35907;SDS011;22003;50.320;8.054;2023-04-24T09:29:00;2.55;;;1.73;;
35907;SDS011;22003;50.320;8.054;2023-04-24T09:31:28;3.22;;;1.60;;
35907;SDS011;22003;50.320;8.054;2023-04-24T09:33:55;2.30;;;1.38;;
35907;SDS011;22003;50.320;8.054;2023-04-24T09:36:32;2.08;;;1.38;;
35907;SDS011;22003;50.320;8.054;2023-04-24T09:39:06;2.47;;;1.42;;
35907;SDS011;22003;50.320;8.054;2023-04-24T09:41:43;3.75;;;1.67;;
35907;SDS011;22003;50.320;8.054;2023-04-24T09:44:22;2.05;;;1.48;;
35907;SDS011;22003;50.320;8.054;2023-04-24T09:46:50;2.05;;;1.13;;
35907;SDS011;22003;50.320;8.054;2023-04-24T09:49:16;1.27;;;1.00;;
35907;SDS011;22003;50.320;8.054;2023-04-24T09:51:47;1.73;;;1.27;;
35907;SDS011;22003;50.320;8.054;2023-04-24T09:54:13;1.20;;;1.10;;
35907;SDS011;22003;50.320;8.054;2023-04-24T09:56:44;1.52;;;1.15;;
35907;SDS011;22003;50.320;8.054;2023-04-24T09:59:11;3.08;;;1.55;;
35907;SDS011;22003;50.320;8.054;2023-04-24T10:01:38;1.38;;;1.17;;
35907;SDS011;22003;50.320;8.054;2023-04-24T10:04:06;2.65;;;1.38;;
35907;SDS011;22003;50.320;8.054;2023-04-24T10:06:40;1.77;;;0.90;;
35907;SDS011;22003;50.320;8.054;2023-04-24T10:09:07;3.15;;;1.50;;
35907;SDS011;22003;50.320;8.054;2023-04-24T10:11:35;3.60;;;1.30;;
35907;SDS011;22003;50.320;8.054;2023-04-24T10:14:00;1.95;;;1.40;;
35907;SDS011;22003;50.320;8.054;2023-04-24T10:16:26;2.72;;;1.48;;
35907;SDS011;22003;50.320;8.054;2023-04-24T10:18:53;1.85;;;1.42;;
35907;SDS011;22003;50.320;8.054;2023-04-24T10:21:19;1.73;;;1.58;;
35907;SDS011;22003;50.320;8.054;2023-04-24T10:23:44;1.88;;;1.35;;
35907;SDS011;22003;50.320;8.054;2023-04-24T10:26:14;1.70;;;1.02;;
35907;SDS011;22003;50.320;8.054;2023-04-24T10:28:46;3.83;;;1.73;;
35907;SDS011;22003;50.320;8.054;2023-04-24T10:31:12;2.42;;;1.48;;
35907;SDS011;22003;50.320;8.054;2023-04-24T10:33:38;1.73;;;1.33;;
35907;SDS011;22003;50.320;8.054;2023-04-24T10:36:06;1.38;;;1.05;;
35907;SDS011;22003;50.320;8.054;2023-04-24T10:38:34;1.83;;;1.20;;
35907;SDS011;22003;50.320;8.054;2023-04-24T10:41:10;1.38;;;1.02;;
35907;SDS011;22003;50.320;8.054;2023-04-24T10:43:44;2.75;;;1.33;;
35907;SDS011;22003;50.320;8.054;2023-04-24T10:46:09;2.97;;;1.40;;
35907;SDS011;22003;50.320;8.054;2023-04-24T10:48:35;2.03;;;1.67;;
35907;SDS011;22003;50.320;8.054;2023-04-24T10:51:01;2.50;;;1.17;;
35907;SDS011;22003;50.320;8.054;2023-04-24T10:53:27;1.40;;;1.05;;
35907;SDS011;22003;50.320;8.054;2023-04-24T10:55:58;2.58;;;1.35;;
35907;SDS011;22003;50.320;8.054;2023-04-24T10:58:44;1.70;;;1.23;;
35907;SDS011;22003;50.320;8.054;2023-04-24T11:03:56;1.95;;;1.55;;
35907;SDS011;22003;50.320;8.054;2023-04-24T11:06:29;1.85;;;1.45;;
35907;SDS011;22003;50.320;8.054;2023-04-24T11:09:04;4.70;;;1.55;;
35907;SDS011;22003;50.320;8.054;2023-04-24T11:11:31;2.67;;;1.70;;
35907;SDS011;22003;50.320;8.054;2023-04-24T11:19:04;2.57;;;1.63;;
35907;SDS011;22003;50.320;8.054;2023-04-24T11:24:22;3.25;;;1.73;;
35907;SDS011;22003;50.320;8.054;2023-04-24T11:29:38;3.35;;;2.30;;
35907;SDS011;22003;50.320;8.054;2023-04-24T11:32:28;5.13;;;2.00;;
35907;SDS011;22003;50.320;8.054;2023-04-24T11:35:00;3.75;;;3.15;;
35907;SDS011;22003;50.320;8.054;2023-04-24T11:37:40;6.20;;;3.40;;
35907;SDS011;22003;50.320;8.054;2023-04-24T11:40:16;6.90;;;3.30;;
35907;SDS011;22003;50.320;8.054;2023-04-24T11:42:46;6.72;;;3.50;;
35907;SDS011;22003;50.320;8.054;2023-04-24T11:45:22;4.30;;;3.25;;
35907;SDS011;22003;50.320;8.054;2023-04-24T11:47:48;6.65;;;3.40;;
35907;SDS011;22003;50.320;8.054;2023-04-24T11:50:15;7.60;;;2.95;;
35907;SDS011;22003;50.320;8.054;2023-04-24T11:52:46;5.80;;;3.20;;
35907;SDS011;22003;50.320;8.054;2023-04-24T11:57:48;6.07;;;2.97;;
35907;SDS011;22003;50.320;8.054;2023-04-24T12:00:18;6.97;;;3.88;;
35907;SDS011;22003;50.320;8.054;2023-04-24T12:02:45;6.68;;;4.43;;
35907;SDS011;22003;50.320;8.054;2023-04-24T12:05:21;11.25;;;4.03;;
35907;SDS011;22003;50.320;8.054;2023-04-24T12:07:48;9.23;;;4.60;;
35907;SDS011;22003;50.320;8.054;2023-04-24T12:10:13;6.80;;;4.32;;
35907;SDS011;22003;50.320;8.054;2023-04-24T12:12:39;5.57;;;3.60;;
35907;SDS011;22003;50.320;8.054;2023-04-24T12:15:08;12.10;;;4.75;;
35907;SDS011;22003;50.320;8.054;2023-04-24T12:17:34;5.03;;;3.33;;
35907;SDS011;22003;50.320;8.054;2023-04-24T12:20:02;6.00;;;3.58;;
35907;SDS011;22003;50.320;8.054;2023-04-24T12:22:42;4.78;;;3.03;;
35907;SDS011;22003;50.320;8.054;2023-04-24T12:25:19;6.60;;;3.75;;
35907;SDS011;22003;50.320;8.054;2023-04-24T12:27:46;6.22;;;3.72;;
35907;SDS011;22003;50.320;8.054;2023-04-24T12:30:16;7.88;;;4.28;;
35907;SDS011;22003;50.320;8.054;2023-04-24T12:32:45;6.40;;;3.17;;
35907;SDS011;22003;50.320;8.054;2023-04-24T12:35:12;4.90;;;3.67;;
35907;SDS011;22003;50.320;8.054;2023-04-24T12:37:38;8.52;;;4.00;;
35907;SDS011;22003;50.320;8.054;2023-04-24T12:40:09;4.57;;;3.80;;
35907;SDS011;22003;50.320;8.054;2023-04-24T12:42:36;6.47;;;3.63;;
35907;SDS011;22003;50.320;8.054;2023-04-24T12:45:07;6.30;;;4.10;;
35907;SDS011;22003;50.320;8.054;2023-04-24T12:47:33;8.00;;;4.35;;
35907;SDS011;22003;50.320;8.054;2023-04-24T12:49:59;6.03;;;4.45;;
35907;SDS011;22003;50.320;8.054;2023-04-24T12:52:26;6.60;;;4.43;;
35907;SDS011;22003;50.320;8.054;2023-04-24T12:54:53;11.77;;;5.38;;
35907;SDS011;22003;50.320;8.054;2023-04-24T12:57:19;9.57;;;4.82;;
35907;SDS011;22003;50.320;8.054;2023-04-24T12:59:45;6.88;;;4.50;;
35907;SDS011;22003;50.320;8.054;2023-04-24T13:02:10;8.30;;;4.88;;
35907;SDS011;22003;50.320;8.054;2023-04-24T13:04:36;9.93;;;5.15;;
35907;SDS011;22003;50.320;8.054;2023-04-24T13:07:01;8.23;;;5.00;;
35907;SDS011;22003;50.320;8.054;2023-04-24T13:09:27;9.93;;;4.90;;
35907;SDS011;22003;50.320;8.054;2023-04-24T13:11:52;7.00;;;5.07;;
35907;SDS011;22003;50.320;8.054;2023-04-24T13:14:17;10.27;;;4.18;;
35907;SDS011;22003;50.320;8.054;2023-04-24T13:16:43;7.53;;;3.47;;
35907;SDS011;22003;50.320;8.054;2023-04-24T13:19:08;5.70;;;3.80;;
35907;SDS011;22003;50.320;8.054;2023-04-24T13:21:33;5.10;;;3.90;;
35907;SDS011;22003;50.320;8.054;2023-04-24T13:23:58;6.15;;;3.85;;
35907;SDS011;22003;50.320;8.054;2023-04-24T13:26:24;9.80;;;4.60;;
35907;SDS011;22003;50.320;8.054;2023-04-24T13:28:50;6.65;;;4.60;;
35907;SDS011;22003;50.320;8.054;2023-04-24T13:31:15;6.28;;;3.60;;
35907;SDS011;22003;50.320;8.054;2023-04-24T13:33:40;9.70;;;4.00;;
35907;SDS011;22003;50.320;8.054;2023-04-24T13:36:05;5.45;;;3.78;;
35907;SDS011;22003;50.320;8.054;2023-04-24T13:38:31;12.57;;;4.93;;
35907;SDS011;22003;50.320;8.054;2023-04-24T13:40:56;7.80;;;3.78;;
35907;SDS011;22003;50.320;8.054;2023-04-24T13:43:21;8.10;;;4.05;;
35907;SDS011;22003;50.320;8.054;2023-04-24T13:45:47;7.38;;;3.90;;
35907;SDS011;22003;50.320;8.054;2023-04-24T13:48:12;5.43;;;4.07;;
35907;SDS011;22003;50.320;8.054;2023-04-24T13:50:40;6.22;;;4.10;;
35907;SDS011;22003;50.320;8.054;2023-04-24T13:53:06;10.35;;;4.43;;
35907;SDS011;22003;50.320;8.054;2023-04-24T13:55:31;9.50;;;4.90;;
35907;SDS011;22003;50.320;8.054;2023-04-24T13:57:56;6.43;;;4.07;;
35907;SDS011;22003;50.320;8.054;2023-04-24T14:00:21;8.07;;;4.63;;
35907;SDS011;22003;50.320;8.054;2023-04-24T14:02:47;6.43;;;4.13;;
35907;SDS011;22003;50.320;8.054;2023-04-24T14:05:13;7.72;;;4.50;;
35907;SDS011;22003;50.320;8.054;2023-04-24T14:07:40;9.75;;;4.05;;
35907;SDS011;22003;50.320;8.054;2023-04-24T14:10:05;8.55;;;4.78;;
35907;SDS011;22003;50.320;8.054;2023-04-24T14:12:31;6.63;;;4.53;;
35907;SDS011;22003;50.320;8.054;2023-04-24T14:14:56;6.03;;;4.40;;
35907;SDS011;22003;50.320;8.054;2023-04-24T14:17:21;5.13;;;3.80;;
35907;SDS011;22003;50.320;8.054;2023-04-24T14:19:47;7.90;;;4.28;;
35907;SDS011;22003;50.320;8.054;2023-04-24T14:22:12;7.30;;;4.32;;
35907;SDS011;22003;50.320;8.054;2023-04-24T14:24:37;8.43;;;4.85;;
35907;SDS011;22003;50.320;8.054;2023-04-24T14:27:02;12.20;;;4.75;;
35907;SDS011;22003;50.320;8.054;2023-04-24T14:29:28;7.53;;;4.20;;
35907;SDS011;22003;50.320;8.054;2023-04-24T14:31:53;8.77;;;4.40;;
35907;SDS011;22003;50.320;8.054;2023-04-24T14:34:18;7.03;;;4.38;;
35907;SDS011;22003;50.320;8.054;2023-04-24T14:36:44;12.35;;;4.25;;
35907;SDS011;22003;50.320;8.054;2023-04-24T14:39:09;12.75;;;5.20;;
35907;SDS011;22003;50.320;8.054;2023-04-24T14:41:35;5.28;;;4.20;;
35907;SDS011;22003;50.320;8.054;2023-04-24T14:44:02;5.47;;;3.78;;
35907;SDS011;22003;50.320;8.054;2023-04-24T14:46:28;7.05;;;5.03;;
35907;SDS011;22003;50.320;8.054;2023-04-24T14:48:55;6.03;;;3.72;;
35907;SDS011;22003;50.320;8.054;2023-04-24T14:51:20;4.85;;;3.53;;
35907;SDS011;22003;50.320;8.054;2023-04-24T14:53:46;4.95;;;3.17;;
35907;SDS011;22003;50.320;8.054;2023-04-24T14:56:12;6.90;;;3.55;;
35907;SDS011;22003;50.320;8.054;2023-04-24T14:58:37;6.78;;;3.58;;
35907;SDS011;22003;50.320;8.054;2023-04-24T15:01:03;5.63;;;3.33;;
35907;SDS011;22003;50.320;8.054;2023-04-24T15:03:28;5.63;;;3.45;;
35907;SDS011;22003;50.320;8.054;2023-04-24T15:05:54;8.73;;;3.97;;
35907;SDS011;22003;50.320;8.054;2023-04-24T15:08:19;6.07;;;3.65;;
35907;SDS011;22003;50.320;8.054;2023-04-24T15:10:45;8.93;;;4.93;;
35907;SDS011;22003;50.320;8.054;2023-04-24T15:13:10;8.48;;;3.55;;
35907;SDS011;22003;50.320;8.054;2023-04-24T15:15:35;6.00;;;3.90;;
35907;SDS011;22003;50.320;8.054;2023-04-24T15:18:01;6.10;;;3.97;;
35907;SDS011;22003;50.320;8.054;2023-04-24T15:20:27;6.53;;;3.92;;
35907;SDS011;22003;50.320;8.054;2023-04-24T15:22:52;7.45;;;3.67;;
35907;SDS011;22003;50.320;8.054;2023-04-24T15:25:17;5.80;;;3.85;;
35907;SDS011;22003;50.320;8.054;2023-04-24T15:27:43;9.38;;;3.63;;
35907;SDS011;22003;50.320;8.054;2023-04-24T15:30:09;6.22;;;3.63;;
35907;SDS011;22003;50.320;8.054;2023-04-24T15:32:35;6.93;;;3.55;;
35907;SDS011;22003;50.320;8.054;2023-04-24T15:35:01;7.05;;;4.18;;
35907;SDS011;22003;50.320;8.054;2023-04-24T15:37:27;6.63;;;3.85;;
35907;SDS011;22003;50.320;8.054;2023-04-24T15:39:52;6.47;;;3.72;;
35907;SDS011;22003;50.320;8.054;2023-04-24T15:42:17;8.25;;;4.18;;
35907;SDS011;22003;50.320;8.054;2023-04-24T15:44:42;9.18;;;4.18;;
35907;SDS011;22003;50.320;8.054;2023-04-24T15:47:08;8.27;;;3.63;;
35907;SDS011;22003;50.320;8.054;2023-04-24T15:49:33;8.57;;;4.30;;
35907;SDS011;22003;50.320;8.054;2023-04-24T15:51:58;5.82;;;3.58;;
35907;SDS011;22003;50.320;8.054;2023-04-24T15:54:23;5.93;;;3.90;;
35907;SDS011;22003;50.320;8.054;2023-04-24T15:56:49;6.25;;;4.07;;
35907;SDS011;22003;50.320;8.054;2023-04-24T15:59:15;6.47;;;4.28;;
35907;SDS011;22003;50.320;8.054;2023-04-24T16:01:42;7.75;;;4.10;;
35907;SDS011;22003;50.320;8.054;2023-04-24T16:04:07;8.63;;;4.18;;
35907;SDS011;22003;50.320;8.054;2023-04-24T16:06:32;7.82;;;4.97;;
35907;SDS011;22003;50.320;8.054;2023-04-24T16:08:57;7.15;;;5.10;;
35907;SDS011;22003;50.320;8.054;2023-04-24T16:11:23;8.77;;;5.65;;
35907;SDS011;22003;50.320;8.054;2023-04-24T16:13:48;11.13;;;5.68;;
35907;SDS011;22003;50.320;8.054;2023-04-24T16:16:13;12.30;;;6.22;;
35907;SDS011;22003;50.320;8.054;2023-04-24T16:18:38;15.02;;;6.38;;
35907;SDS011;22003;50.320;8.054;2023-04-24T16:21:04;9.52;;;5.05;;
35907;SDS011;22003;50.320;8.054;2023-04-24T16:23:29;10.10;;;5.43;;
35907;SDS011;22003;50.320;8.054;2023-04-24T16:25:54;8.93;;;4.78;;
35907;SDS011;22003;50.320;8.054;2023-04-24T16:28:20;7.32;;;4.18;;
35907;SDS011;22003;50.320;8.054;2023-04-24T16:30:46;6.70;;;4.63;;
35907;SDS011;22003;50.320;8.054;2023-04-24T16:33:11;5.75;;;3.95;;
35907;SDS011;22003;50.320;8.054;2023-04-24T16:35:37;7.75;;;4.13;;
35907;SDS011;22003;50.320;8.054;2023-04-24T16:38:02;5.63;;;3.85;;
35907;SDS011;22003;50.320;8.054;2023-04-24T16:40:28;5.57;;;3.70;;
35907;SDS011;22003;50.320;8.054;2023-04-24T16:42:54;8.27;;;3.78;;
35907;SDS011;22003;50.320;8.054;2023-04-24T16:45:19;6.28;;;3.88;;
35907;SDS011;22003;50.320;8.054;2023-04-24T16:47:45;4.50;;;3.40;;
35907;SDS011;22003;50.320;8.054;2023-04-24T16:50:10;5.32;;;3.85;;
35907;SDS011;22003;50.320;8.054;2023-04-24T16:52:35;7.57;;;4.03;;
35907;SDS011;22003;50.320;8.054;2023-04-24T16:55:02;6.43;;;4.18;;
35907;SDS011;22003;50.320;8.054;2023-04-24T16:57:27;6.47;;;4.40;;
35907;SDS011;22003;50.320;8.054;2023-04-24T16:59:53;7.70;;;4.18;;
35907;SDS011;22003;50.320;8.054;2023-04-24T17:02:18;8.48;;;4.47;;
35907;SDS011;22003;50.320;8.054;2023-04-24T17:04:43;8.15;;;4.07;;
35907;SDS011;22003;50.320;8.054;2023-04-24T17:07:10;8.50;;;4.65;;
35907;SDS011;22003;50.320;8.054;2023-04-24T17:09:35;6.32;;;3.83;;
35907;SDS011;22003;50.320;8.054;2023-04-24T17:12:00;6.63;;;3.90;;
35907;SDS011;22003;50.320;8.054;2023-04-24T17:14:26;8.32;;;3.97;;
35907;SDS011;22003;50.320;8.054;2023-04-24T17:16:51;6.03;;;3.85;;
35907;SDS011;22003;50.320;8.054;2023-04-24T17:19:17;6.75;;;3.78;;
35907;SDS011;22003;50.320;8.054;2023-04-24T17:21:42;6.25;;;3.97;;
35907;SDS011;22003;50.320;8.054;2023-04-24T17:24:07;6.43;;;3.92;;
35907;SDS011;22003;50.320;8.054;2023-04-24T17:26:33;5.10;;;3.58;;
35907;SDS011;22003;50.320;8.054;2023-04-24T17:28:58;8.30;;;4.15;;
35907;SDS011;22003;50.320;8.054;2023-04-24T17:31:23;5.50;;;3.78;;
35907;SDS011;22003;50.320;8.054;2023-04-24T17:33:49;7.97;;;4.30;;
35907;SDS011;22003;50.320;8.054;2023-04-24T17:36:14;6.65;;;4.55;;
35907;SDS011;22003;50.320;8.054;2023-04-24T17:38:40;6.57;;;4.30;;
35907;SDS011;22003;50.320;8.054;2023-04-24T17:41:05;6.38;;;3.92;;
35907;SDS011;22003;50.320;8.054;2023-04-24T17:43:31;7.85;;;4.70;;
35907;SDS011;22003;50.320;8.054;2023-04-24T17:45:56;7.00;;;4.97;;
35907;SDS011;22003;50.320;8.054;2023-04-24T17:48:23;9.15;;;4.68;;
35907;SDS011;22003;50.320;8.054;2023-04-24T17:50:48;6.18;;;4.20;;
35907;SDS011;22003;50.320;8.054;2023-04-24T17:53:14;6.32;;;4.47;;
35907;SDS011;22003;50.320;8.054;2023-04-24T17:55:39;8.10;;;4.57;;
35907;SDS011;22003;50.320;8.054;2023-04-24T17:58:07;8.73;;;5.30;;
35907;SDS011;22003;50.320;8.054;2023-04-24T18:00:32;6.80;;;4.75;;
35907;SDS011;22003;50.320;8.054;2023-04-24T18:02:58;9.95;;;5.25;;
35907;SDS011;22003;50.320;8.054;2023-04-24T18:05:27;8.02;;;5.82;;
35907;SDS011;22003;50.320;8.054;2023-04-24T18:07:56;9.32;;;5.72;;
35907;SDS011;22003;50.320;8.054;2023-04-24T18:10:22;9.43;;;6.15;;
35907;SDS011;22003;50.320;8.054;2023-04-24T18:12:49;10.90;;;6.63;;
35907;SDS011;22003;50.320;8.054;2023-04-24T18:15:14;10.32;;;7.00;;
35907;SDS011;22003;50.320;8.054;2023-04-24T18:17:40;10.50;;;6.32;;
35907;SDS011;22003;50.320;8.054;2023-04-24T18:20:06;14.77;;;7.32;;
35907;SDS011;22003;50.320;8.054;2023-04-24T18:22:32;16.23;;;7.72;;
35907;SDS011;22003;50.320;8.054;2023-04-24T18:24:57;11.88;;;7.60;;
35907;SDS011;22003;50.320;8.054;2023-04-24T18:27:22;10.68;;;6.80;;
35907;SDS011;22003;50.320;8.054;2023-04-24T18:29:49;10.38;;;6.30;;
35907;SDS011;22003;50.320;8.054;2023-04-24T18:32:15;13.23;;;7.45;;
35907;SDS011;22003;50.320;8.054;2023-04-24T18:34:41;13.45;;;8.10;;
35907;SDS011;22003;50.320;8.054;2023-04-24T18:37:06;14.23;;;8.15;;
35907;SDS011;22003;50.320;8.054;2023-04-24T18:39:31;14.40;;;8.00;;
35907;SDS011;22003;50.320;8.054;2023-04-24T18:41:57;15.68;;;7.60;;
35907;SDS011;22003;50.320;8.054;2023-04-24T18:44:22;14.15;;;8.25;;
35907;SDS011;22003;50.320;8.054;2023-04-24T18:46:49;12.55;;;7.55;;
35907;SDS011;22003;50.320;8.054;2023-04-24T18:49:15;15.73;;;8.57;;
35907;SDS011;22003;50.320;8.054;2023-04-24T18:51:40;17.63;;;8.95;;
35907;SDS011;22003;50.320;8.054;2023-04-24T18:54:05;14.63;;;8.35;;
35907;SDS011;22003;50.320;8.054;2023-04-24T18:56:30;14.57;;;8.38;;
35907;SDS011;22003;50.320;8.054;2023-04-24T18:58:56;16.13;;;8.90;;